Other Surface Observations
Issued by NWS

Home | Current Version | Previous Version | Text Only | Print | Product List | Glossary On
Versions: 1 2 3 4 5 6 7 8 9 10 11 12 13 14 15 16 17 18 19 20 21 22 23 24 25 26 27 28 29 30 31 32 33 34 35 36 37 38 39 40 41 42 43 44 45 46 47 48 49 50
000
SXPA56 KWBC 282049
OSOHW
:SHEF ENCODED 6-MINUTE NOS MET DATA
:NATIONAL WATER LEVEL OBSERVATION NETWORK (NWLON)
:TA(AIR TEMP DEG F)  SLP(SEA LEVEL PRESSURE INCHES)
:UD(WIND DIRECTION WHOLE DEGREES) US (WIND SPEED MPH)
:TW(WATER TEMP DEG F) UG(WIND GUSTS MPH) WC(CONDUCTIVITY uMHOS/CM)
:-9999 (MISSING VALUES)
:PROVIDED BY DOC/NOAA/NOS/CO-OPS, (301) 713-2540
:corms@noaa.gov
.E NWWH1 20210728 Z DH2036/TAIRP/DIN06/   79/   79
.E NWWH1 20210728 Z DH2036/PLIRP/DIN06/30.09/30.09
.E NWWH1 20210728 Z DH2030/TAIRG/DIN06/   79/   79/-9999
.E NWWH1 20210728 Z DH2030/PLIRG/DIN06/30.09/30.09/-9999
.E NWWH1 20210728 Z DH2030/TWIRG/DIN06/-9999/   87/   87
.E OOUH1 20210728 Z DH2030/TAIRG/DIN06/   82/   82
.E OOUH1 20210728 Z DH2030/PLIRG/DIN06/30.08/30.07
.E OOUH1 20210728 Z DH2030/USIRG/DIN06/    6/    6
.E OOUH1 20210728 Z DH2030/UDIRG/DIN06/   59/   97
.E OOUH1 20210728 Z DH2030/UGIRG/DIN06/   13/   13
.E OOUH1 20210728 Z DH2030/TWIRG/DIN06/   80/   80
.E MOKH1 20210728 Z DH2030/TAIRG/DIN06/   80/   80
.E MOKH1 20210728 Z DH2030/PLIRG/DIN06/30.08/30.09
.E MOKH1 20210728 Z DH2030/TWIRG/DIN06/   80/   80
.E KLIH1 20210728 Z DH2030/TAIRG/DIN06/   76/   76
.E KLIH1 20210728 Z DH2030/PLIRG/DIN06/30.06/30.06
.E KLIH1 20210728 Z DH2030/USIRG/DIN06/   17/   15
.E KLIH1 20210728 Z DH2030/UDIRG/DIN06/   64/   63
.E KLIH1 20210728 Z DH2030/UGIRG/DIN06/   22/   23
.E KLIH1 20210728 Z DH2030/TWIRG/DIN06/   79/   79
.A KWHH1 20210728 Z DH2036/TAIRG    82/UGIRG    11/PLIRG 30.01/UDIRG   261/USIRG     1/TWIRG    82/WCIRG -9999
.A ILOH1 20210728 Z DH2036/TAIRG    77/UGIRG     6/PLIRG 30.03/UDIRG    22/USIRG     2/TWIRG    80/WCIRG -9999
.A SNDP5 20210728 Z DH2036/TAIRG    79/UGIRG -9999/PLIRG 30.13/UDIRG -9999/USIRG -9999/TWIRG    80/WCIRG -9999
.E APRP7 20210728 Z DH2036/TAIRG/DIN06/   80/   80
.E APRP7 20210728 Z DH2036/PLIRG/DIN06/29.85/29.85
.E APRP7 20210728 Z DH2036/USIRG/DIN06/    1/    1
.E APRP7 20210728 Z DH2036/UDIRG/DIN06/  147/  146
.E APRP7 20210728 Z DH2036/UGIRG/DIN06/    2/    2
.E APRP7 20210728 Z DH2036/TWIRG/DIN06/   85/   85
.E PGBP7 20210728 Z DH2036/PLIRG/DIN06/29.85/29.85
.E PGBP7 20210728 Z DH2036/USIRG/DIN06/    3/    3
.E PGBP7 20210728 Z DH2036/UDIRG/DIN06/  349/  346
.E PGBP7 20210728 Z DH2036/UGIRG/DIN06/    4/    4
.A KWJP8 20210728 Z DH2036/TAIRG -9999/UGIRG -9999/PLIRG 29.85/UDIRG -9999/USIRG -9999/TWIRG -9999/WCIRG -9999
.A WAKP8 20210728 Z DH2036/TAIRG    83/UGIRG     9/PLIRG 29.91/UDIRG   102/USIRG     6/TWIRG    85/WCIRG -9999



USA.gov is the U.S. government's official web portal to all federal, state and local government web resources and services.